createdAt,value
2022-12-26T00:00:28.999Z,9.40
2022-12-26T00:02:56.311Z,9.30
2022-12-26T00:05:23.693Z,9.40
2022-12-26T00:07:51.149Z,9.50
2022-12-26T00:10:18.249Z,9.30
2022-12-26T00:12:45.351Z,9.30
2022-12-26T00:15:12.632Z,9.30
2022-12-26T00:17:39.683Z,9.30
2022-12-26T00:20:07.204Z,9.30
2022-12-26T00:22:34.398Z,9.40
2022-12-26T00:25:01.531Z,9.40
2022-12-26T00:27:28.701Z,9.40
2022-12-26T00:29:55.773Z,9.40
2022-12-26T00:32:22.902Z,9.40
2022-12-26T00:34:50.041Z,9.40
2022-12-26T00:37:17.177Z,9.40
2022-12-26T00:39:44.282Z,9.40
2022-12-26T00:42:11.434Z,9.40
2022-12-26T00:44:38.519Z,9.40
2022-12-26T00:47:05.679Z,9.40
2022-12-26T00:50:14.350Z,10.80
2022-12-26T00:52:20.123Z,9.20
2022-12-26T00:54:47.217Z,9.40
2022-12-26T00:57:14.397Z,9.50
2022-12-26T00:59:41.541Z,9.60
2022-12-26T01:02:29.609Z,9.70
2022-12-26T01:04:56.904Z,9.50
2022-12-26T01:07:24.021Z,9.50
2022-12-26T01:09:51.305Z,9.50
2022-12-26T01:12:18.936Z,9.50
2022-12-26T01:14:46.103Z,9.60
2022-12-26T01:17:13.270Z,9.50
2022-12-26T01:19:40.330Z,9.50
2022-12-26T01:22:07.454Z,9.40
2022-12-26T01:24:34.572Z,9.40
2022-12-26T01:27:01.680Z,9.40
2022-12-26T01:29:29.193Z,9.50
2022-12-26T01:31:56.320Z,9.50
2022-12-26T01:34:23.533Z,9.50
2022-12-26T01:36:51.961Z,9.40
2022-12-26T01:39:19.156Z,10.60
2022-12-26T01:41:46.268Z,10.10
2022-12-26T01:44:31.937Z,9.40
2022-12-26T01:46:59.289Z,9.40
2022-12-26T01:49:37.543Z,9.40
2022-12-26T01:52:06.708Z,9.40
2022-12-26T01:54:37.457Z,9.50
2022-12-26T01:57:16.149Z,10.10
2022-12-26T01:59:43.713Z,8.80
2022-12-26T02:02:11.155Z,9.50
2022-12-26T02:04:59.757Z,9.50
2022-12-26T02:07:26.872Z,9.60
2022-12-26T02:09:54.505Z,9.50
2022-12-26T02:12:37.003Z,9.50
2022-12-26T02:15:07.419Z,11.00
2022-12-26T02:17:34.540Z,9.50
2022-12-26T02:20:10.191Z,9.50
2022-12-26T02:22:46.516Z,9.40
2022-12-26T02:25:22.470Z,9.50
2022-12-26T02:27:49.581Z,9.50
2022-12-26T02:30:25.775Z,9.50
2022-12-26T02:33:11.098Z,9.50
2022-12-26T02:35:50.257Z,9.50
2022-12-26T02:38:25.563Z,9.50
2022-12-26T02:41:05.057Z,9.50
2022-12-26T02:43:32.135Z,9.50
2022-12-26T02:46:20.854Z,9.50
2022-12-26T02:48:55.900Z,9.10
2022-12-26T02:51:55.145Z,9.60
2022-12-26T02:54:49.748Z,9.60
2022-12-26T02:57:37.377Z,9.60
2022-12-26T03:00:25.535Z,9.60
2022-12-26T03:03:13.809Z,9.60
2022-12-26T03:06:04.907Z,9.70
2022-12-26T03:08:53.418Z,9.70
2022-12-26T03:11:40.011Z,9.10
2022-12-26T03:14:12.393Z,9.80
2022-12-26T03:16:57.863Z,9.80
2022-12-26T03:19:27.409Z,9.90
2022-12-26T03:21:55.793Z,9.90
2022-12-26T03:24:22.948Z,9.90
2022-12-26T03:26:52.696Z,9.90
2022-12-26T03:29:40.056Z,9.90
2022-12-26T03:32:11.055Z,9.90
2022-12-26T03:34:41.242Z,9.90
2022-12-26T03:37:14.629Z,9.90
2022-12-26T03:40:15.959Z,10.00
2022-12-26T03:43:20.885Z,9.90
2022-12-26T03:46:42.034Z,10.00
2022-12-26T03:50:02.745Z,9.90
2022-12-26T03:52:57.734Z,10.00
2022-12-26T03:55:47.690Z,10.10
2022-12-26T03:59:02.764Z,10.10
2022-12-26T04:01:50.760Z,10.00
2022-12-26T04:04:37.685Z,10.10
2022-12-26T04:07:26.580Z,10.10
2022-12-26T04:10:28.054Z,10.10
2022-12-26T04:13:14.640Z,10.10
2022-12-26T04:16:03.386Z,10.10
2022-12-26T04:18:55.938Z,10.00
2022-12-26T04:22:13.945Z,10.10
2022-12-26T04:25:03.974Z,9.30
2022-12-26T04:27:53.011Z,10.00
2022-12-26T04:30:38.519Z,10.00
2022-12-26T04:33:27.894Z,9.80
2022-12-26T04:36:34.689Z,9.80
2022-12-26T04:39:22.417Z,9.80
2022-12-26T04:42:08.920Z,9.70
2022-12-26T04:44:37.094Z,9.70
2022-12-26T04:47:04.180Z,9.70
2022-12-26T04:49:59.814Z,9.70
2022-12-26T04:52:47.155Z,9.60
2022-12-26T04:55:14.462Z,9.70
2022-12-26T04:57:41.669Z,9.70
2022-12-26T05:00:09.083Z,9.70
2022-12-26T05:02:54.775Z,9.60
2022-12-26T05:05:40.600Z,9.60
2022-12-26T05:08:42.243Z,9.60
2022-12-26T05:11:09.420Z,9.60
2022-12-26T05:13:36.547Z,9.60
2022-12-26T05:16:22.536Z,9.60
2022-12-26T05:19:08.162Z,9.60
2022-12-26T05:21:55.406Z,9.60
2022-12-26T05:24:42.232Z,9.50
2022-12-26T05:27:46.111Z,9.50
2022-12-26T05:30:13.339Z,9.50
2022-12-26T05:32:59.209Z,9.30
2022-12-26T05:35:26.864Z,9.00
2022-12-26T05:37:54.753Z,8.70
2022-12-26T05:40:21.981Z,8.50
2022-12-26T05:42:49.120Z,8.30
2022-12-26T05:45:16.668Z,8.10
2022-12-26T05:47:49.896Z,8.10
2022-12-26T05:50:18.920Z,8.10
2022-12-26T05:52:46.092Z,6.70
2022-12-26T05:55:13.218Z,8.00
2022-12-26T05:57:40.567Z,8.10
2022-12-26T06:00:07.944Z,8.10
2022-12-26T06:02:35.192Z,8.00
2022-12-26T06:05:02.368Z,8.10
2022-12-26T06:07:29.547Z,8.00
2022-12-26T06:09:56.704Z,8.00
2022-12-26T06:12:24.143Z,8.00
2022-12-26T06:14:51.209Z,8.00
2022-12-26T06:17:18.547Z,8.00
2022-12-26T06:19:47.017Z,8.00
2022-12-26T06:22:14.365Z,8.00
2022-12-26T06:24:41.474Z,7.90
2022-12-26T06:27:08.571Z,7.90
2022-12-26T06:29:36.153Z,7.90
2022-12-26T06:32:03.599Z,7.80
2022-12-26T06:34:30.842Z,7.80
2022-12-26T06:36:57.933Z,8.20
2022-12-26T06:39:25.063Z,7.80
2022-12-26T06:41:52.176Z,7.80
2022-12-26T06:44:19.312Z,7.70
2022-12-26T06:46:46.554Z,7.70
2022-12-26T06:49:13.712Z,7.70
2022-12-26T06:51:41.379Z,7.70
2022-12-26T06:54:09.452Z,7.70
2022-12-26T06:56:36.600Z,7.70
2022-12-26T06:59:05.165Z,7.60
2022-12-26T07:01:33.514Z,7.60
2022-12-26T07:04:01.036Z,7.60
2022-12-26T07:06:29.724Z,7.50
2022-12-26T07:08:58.421Z,7.40
2022-12-26T07:11:27.020Z,7.50
2022-12-26T07:13:54.572Z,7.40
2022-12-26T07:16:22.006Z,7.40
2022-12-26T07:18:49.585Z,7.40
2022-12-26T07:21:16.713Z,7.40
2022-12-26T07:23:43.925Z,8.20
2022-12-26T07:26:11.032Z,7.40
2022-12-26T07:28:38.405Z,7.40
2022-12-26T07:31:06.065Z,7.30
2022-12-26T07:33:33.193Z,7.30
2022-12-26T07:36:01.296Z,7.30
2022-12-26T07:38:28.598Z,7.30
2022-12-26T07:40:56.446Z,7.30
2022-12-26T07:43:23.970Z,7.30
2022-12-26T07:45:51.303Z,7.30
2022-12-26T07:48:18.459Z,7.30
2022-12-26T07:50:47.420Z,7.20
2022-12-26T07:53:15.251Z,7.20
2022-12-26T07:55:42.397Z,7.20
2022-12-26T07:58:09.482Z,7.20
2022-12-26T08:00:36.636Z,7.10
2022-12-26T08:03:07.905Z,7.10
2022-12-26T08:05:35.450Z,7.10
2022-12-26T08:08:02.551Z,7.10
2022-12-26T08:10:29.724Z,7.10
2022-12-26T08:12:56.877Z,7.10
2022-12-26T08:15:23.991Z,7.10
2022-12-26T08:17:51.124Z,7.20
2022-12-26T08:20:18.290Z,7.40
2022-12-26T08:22:45.415Z,7.10
2022-12-26T08:25:13.396Z,7.10
2022-12-26T08:27:42.648Z,7.10
2022-12-26T08:30:10.095Z,7.10
2022-12-26T08:32:39.538Z,7.60
2022-12-26T08:35:09.816Z,7.10
2022-12-26T08:37:38.139Z,7.10
2022-12-26T08:40:05.667Z,7.00
2022-12-26T08:42:34.630Z,7.00
2022-12-26T08:45:07.692Z,7.00
2022-12-26T08:47:34.841Z,7.10
2022-12-26T08:50:02.073Z,7.10
2022-12-26T08:52:29.618Z,7.10
2022-12-26T08:54:56.773Z,7.00
2022-12-26T08:57:24.278Z,7.00
2022-12-26T08:59:51.401Z,7.00
2022-12-26T09:02:18.745Z,7.10
2022-12-26T09:04:46.110Z,7.00
2022-12-26T09:07:13.257Z,7.10
2022-12-26T09:09:40.365Z,7.10
2022-12-26T09:12:07.465Z,7.00
2022-12-26T09:14:34.575Z,7.10
2022-12-26T09:17:01.821Z,7.10
2022-12-26T09:19:32.417Z,7.10
2022-12-26T09:22:18.423Z,7.10
2022-12-26T09:24:45.545Z,7.20
2022-12-26T09:27:12.689Z,7.50
2022-12-26T09:29:39.807Z,7.10
2022-12-26T09:32:07.121Z,7.40
2022-12-26T09:34:34.454Z,7.00
2022-12-26T09:37:01.543Z,7.00
2022-12-26T09:39:28.717Z,7.00
2022-12-26T09:42:00.385Z,7.00
2022-12-26T09:44:43.980Z,7.00
2022-12-26T09:47:29.918Z,7.90
2022-12-26T09:50:09.536Z,7.00
2022-12-26T09:52:54.942Z,7.00
2022-12-26T09:55:27.911Z,7.00
2022-12-26T09:57:57.299Z,7.00
2022-12-26T10:00:27.261Z,7.10
2022-12-26T10:02:56.895Z,7.00
2022-12-26T10:05:26.153Z,7.10
2022-12-26T10:08:11.348Z,7.10
2022-12-26T10:10:47.580Z,7.10
2022-12-26T10:13:22.380Z,7.10
2022-12-26T10:15:52.235Z,7.10
2022-12-26T10:18:19.461Z,7.10
2022-12-26T10:21:01.975Z,7.10
2022-12-26T10:23:55.133Z,7.10
2022-12-26T10:26:30.064Z,7.20
2022-12-26T10:29:10.665Z,7.20
2022-12-26T10:31:41.553Z,7.30
2022-12-26T10:34:11.443Z,7.20
2022-12-26T10:36:38.526Z,7.20
2022-12-26T10:39:10.358Z,7.20
2022-12-26T10:41:42.762Z,7.20
2022-12-26T10:44:11.868Z,7.20
2022-12-26T10:47:05.365Z,7.20
2022-12-26T10:49:32.508Z,7.40
2022-12-26T10:52:00.815Z,7.20
2022-12-26T10:54:29.198Z,7.20
2022-12-26T10:56:57.235Z,7.20
2022-12-26T10:59:44.628Z,7.20
2022-12-26T11:02:28.853Z,7.20
2022-12-26T11:05:33.211Z,7.50
2022-12-26T11:07:50.756Z,7.20
2022-12-26T11:10:19.517Z,7.40
2022-12-26T11:12:51.531Z,7.30
2022-12-26T11:15:21.621Z,7.30
2022-12-26T11:17:51.715Z,7.30
2022-12-26T11:20:22.369Z,7.30
2022-12-26T11:22:49.523Z,7.30
2022-12-26T11:25:18.688Z,7.30
2022-12-26T11:27:47.647Z,7.40
2022-12-26T11:30:14.889Z,7.40
2022-12-26T11:32:43.024Z,7.30
2022-12-26T11:35:21.169Z,7.40
2022-12-26T11:37:52.170Z,6.70
2022-12-26T11:40:21.637Z,7.40
2022-12-26T11:42:50.948Z,7.30
2022-12-26T11:45:21.748Z,7.40
2022-12-26T11:47:48.933Z,7.40
2022-12-26T11:50:21.510Z,7.40
2022-12-26T11:52:48.813Z,7.40
2022-12-26T11:55:28.218Z,8.30
2022-12-26T11:57:58.597Z,7.40
2022-12-26T12:00:26.592Z,7.50
2022-12-26T12:02:54.138Z,7.50
2022-12-26T12:05:40.186Z,7.50
2022-12-26T12:08:25.999Z,7.50
2022-12-26T12:11:04.785Z,7.50
2022-12-26T12:13:48.974Z,7.50
2022-12-26T12:16:16.254Z,7.50
2022-12-26T12:18:49.231Z,7.50
2022-12-26T12:21:19.320Z,7.60
2022-12-26T12:24:10.337Z,7.60
2022-12-26T12:26:57.578Z,7.60
2022-12-26T12:29:32.431Z,7.60
2022-12-26T12:32:12.634Z,7.60
2022-12-26T12:34:42.465Z,7.60
2022-12-26T12:37:12.606Z,7.60
2022-12-26T12:40:02.821Z,8.60
2022-12-26T12:42:32.989Z,7.60
2022-12-26T12:45:13.997Z,7.70
2022-12-26T12:47:53.957Z,7.70
2022-12-26T12:50:36.234Z,7.70
2022-12-26T12:53:25.196Z,7.70
2022-12-26T12:56:01.908Z,7.70
2022-12-26T12:58:38.560Z,6.90
2022-12-26T13:01:09.369Z,7.70
2022-12-26T13:03:43.360Z,7.70
2022-12-26T13:06:13.563Z,7.80
2022-12-26T13:08:59.719Z,7.70
2022-12-26T13:11:30.251Z,7.80
2022-12-26T13:14:07.678Z,7.80
2022-12-26T13:16:46.383Z,7.80
2022-12-26T13:19:18.669Z,7.80
2022-12-26T13:21:46.625Z,7.80
2022-12-26T13:24:25.808Z,7.80
2022-12-26T13:26:52.946Z,7.90
2022-12-26T13:29:34.157Z,7.90
2022-12-26T13:32:02.339Z,7.90
2022-12-26T13:34:29.485Z,8.30
2022-12-26T13:36:57.599Z,7.80
2022-12-26T13:39:27.619Z,7.80
2022-12-26T13:42:15.029Z,7.80
2022-12-26T13:44:42.807Z,7.90
2022-12-26T13:47:45.181Z,7.80
2022-12-26T13:50:35.361Z,8.10
2022-12-26T13:53:03.256Z,7.90
2022-12-26T13:55:33.011Z,7.90
2022-12-26T13:58:36.009Z,7.90
2022-12-26T14:01:11.126Z,7.90
2022-12-26T14:03:44.996Z,7.90
2022-12-26T14:06:25.244Z,7.80
2022-12-26T14:08:55.166Z,7.80
2022-12-26T14:11:37.718Z,7.90
2022-12-26T14:14:30.293Z,7.80
2022-12-26T14:17:16.081Z,7.80
2022-12-26T14:19:46.144Z,7.80
2022-12-26T14:22:23.070Z,7.80
2022-12-26T14:25:04.815Z,7.80
2022-12-26T14:27:34.511Z,7.80
2022-12-26T14:30:23.113Z,7.80
2022-12-26T14:33:08.987Z,7.80
2022-12-26T14:35:39.613Z,7.80
2022-12-26T14:38:18.630Z,7.80
2022-12-26T14:41:00.189Z,7.80
2022-12-26T14:43:40.686Z,7.80
2022-12-26T14:46:27.324Z,8.60
2022-12-26T14:48:55.862Z,7.80
2022-12-26T14:51:27.764Z,7.70
2022-12-26T14:54:17.071Z,7.70
2022-12-26T14:56:44.334Z,7.70
2022-12-26T14:59:30.346Z,7.70
2022-12-26T15:02:02.339Z,7.70
2022-12-26T15:04:45.768Z,7.70
2022-12-26T15:07:31.646Z,7.70
2022-12-26T15:09:58.740Z,7.70
2022-12-26T15:12:44.559Z,7.70
2022-12-26T15:15:30.357Z,7.60
2022-12-26T15:18:06.317Z,8.10
2022-12-26T15:20:42.384Z,7.70
2022-12-26T15:23:15.322Z,7.70
2022-12-26T15:26:05.682Z,7.70
2022-12-26T15:28:41.776Z,7.60
2022-12-26T15:31:11.948Z,7.50
2022-12-26T15:33:40.804Z,7.50
2022-12-26T15:36:28.989Z,7.50
2022-12-26T15:39:03.115Z,7.50
2022-12-26T15:41:53.850Z,7.50
2022-12-26T15:44:26.847Z,7.50
2022-12-26T15:47:12.033Z,7.40
2022-12-26T15:49:48.774Z,7.50
2022-12-26T15:52:24.562Z,7.40
2022-12-26T15:55:14.419Z,7.30
2022-12-26T15:57:58.121Z,7.40
2022-12-26T16:00:42.328Z,7.40
2022-12-26T16:03:18.376Z,8.30
2022-12-26T16:06:00.212Z,7.60
2022-12-26T16:09:00.148Z,7.30
2022-12-26T16:11:32.125Z,7.30
2022-12-26T16:14:04.516Z,7.30
2022-12-26T16:16:33.340Z,7.20
2022-12-26T16:19:21.104Z,7.20
2022-12-26T16:22:12.714Z,7.30
2022-12-26T16:24:40.557Z,7.20
2022-12-26T16:27:09.255Z,7.20
2022-12-26T16:29:41.347Z,8.30
2022-12-26T16:32:08.645Z,7.20
2022-12-26T16:34:36.670Z,7.20
2022-12-26T16:37:04.199Z,7.20
2022-12-26T16:39:32.295Z,7.20
2022-12-26T16:42:06.739Z,7.20
2022-12-26T16:44:38.571Z,7.20
2022-12-26T16:47:07.542Z,7.20
2022-12-26T16:49:35.174Z,7.20
2022-12-26T16:52:03.046Z,8.30
2022-12-26T16:54:37.890Z,7.20
2022-12-26T16:57:08.112Z,7.10
2022-12-26T17:00:07.835Z,7.10
2022-12-26T17:02:35.639Z,6.70
2022-12-26T17:05:08.225Z,7.10
2022-12-26T17:07:37.617Z,7.00
2022-12-26T17:10:09.327Z,7.00
2022-12-26T17:12:39.845Z,7.00
2022-12-26T17:15:07.790Z,7.00
2022-12-26T17:17:36.883Z,7.00
2022-12-26T17:20:22.533Z,7.00
2022-12-26T17:22:50.477Z,7.00
2022-12-26T17:25:17.552Z,7.00
2022-12-26T17:27:45.363Z,6.50
2022-12-26T17:30:31.868Z,7.00
2022-12-26T17:33:14.056Z,7.00
2022-12-26T17:36:25.368Z,6.70
2022-12-26T17:38:29.169Z,7.00
2022-12-26T17:40:58.234Z,7.00
2022-12-26T17:43:30.131Z,7.00
2022-12-26T17:45:57.948Z,7.00
2022-12-26T17:48:28.888Z,7.00
2022-12-26T17:50:57.809Z,7.00
2022-12-26T17:53:26.633Z,7.00
2022-12-26T17:55:54.867Z,7.30
2022-12-26T17:58:22.338Z,7.00
2022-12-26T18:00:49.854Z,6.90
2022-12-26T18:03:17.451Z,6.90
2022-12-26T18:05:45.852Z,7.40
2022-12-26T18:08:21.984Z,6.90
2022-12-26T18:10:49.145Z,6.90
2022-12-26T18:13:17.032Z,6.90
2022-12-26T18:15:44.255Z,6.80
2022-12-26T18:18:26.155Z,6.80
2022-12-26T18:20:53.355Z,6.80
2022-12-26T18:23:20.607Z,6.80
2022-12-26T18:25:52.830Z,6.80
2022-12-26T18:28:21.765Z,6.70
2022-12-26T18:30:51.442Z,6.70
2022-12-26T18:33:18.778Z,6.70
2022-12-26T18:35:46.064Z,6.70
2022-12-26T18:38:14.385Z,6.60
2022-12-26T18:40:43.174Z,6.60
2022-12-26T18:43:10.427Z,6.60
2022-12-26T18:45:38.316Z,6.60
2022-12-26T18:48:06.142Z,6.60
2022-12-26T18:50:33.933Z,6.70
2022-12-26T18:53:01.490Z,6.70
2022-12-26T18:55:28.959Z,6.50
2022-12-26T18:57:56.113Z,6.60
2022-12-26T19:00:23.982Z,6.60
2022-12-26T19:02:52.166Z,6.60
2022-12-26T19:05:22.899Z,6.60
2022-12-26T19:07:50.461Z,6.60
2022-12-26T19:10:18.594Z,6.60
2022-12-26T19:12:45.807Z,6.60
2022-12-26T19:15:14.182Z,6.60
2022-12-26T19:17:43.619Z,6.60
2022-12-26T19:20:18.057Z,6.60
2022-12-26T19:22:45.302Z,6.60
2022-12-26T19:25:13.580Z,6.60
2022-12-26T19:27:40.749Z,6.60
2022-12-26T19:30:08.398Z,6.60
2022-12-26T19:32:35.549Z,6.60
2022-12-26T19:35:02.898Z,6.40
2022-12-26T19:37:30.026Z,6.50
2022-12-26T19:39:58.239Z,6.50
2022-12-26T19:42:25.930Z,6.50
2022-12-26T19:44:53.170Z,6.60
2022-12-26T19:47:20.435Z,6.60
2022-12-26T19:49:48.144Z,6.60
2022-12-26T19:52:15.206Z,6.50
2022-12-26T19:54:42.402Z,5.70
2022-12-26T19:57:09.534Z,6.80
2022-12-26T19:59:37.460Z,6.50
2022-12-26T20:02:05.027Z,6.50
2022-12-26T20:04:32.234Z,6.50
2022-12-26T20:07:00.556Z,6.50
2022-12-26T20:09:27.650Z,6.50
2022-12-26T20:11:55.162Z,6.60
2022-12-26T20:14:24.323Z,6.50
2022-12-26T20:17:09.923Z,6.60
2022-12-26T20:19:37.407Z,6.50
2022-12-26T20:22:05.002Z,6.50
2022-12-26T20:24:32.557Z,6.50
2022-12-26T20:26:59.707Z,6.50
2022-12-26T20:29:26.841Z,6.50
2022-12-26T20:31:56.848Z,6.50
2022-12-26T20:34:24.209Z,6.50
2022-12-26T20:36:51.541Z,6.50
2022-12-26T20:39:19.310Z,6.60
2022-12-26T20:41:46.865Z,6.60
2022-12-26T20:44:14.469Z,6.60
2022-12-26T20:46:42.072Z,6.60
2022-12-26T20:49:09.995Z,5.10
2022-12-26T20:51:39.380Z,6.10
2022-12-26T20:54:07.312Z,6.60
2022-12-26T20:56:34.895Z,6.60
2022-12-26T20:59:02.093Z,6.70
2022-12-26T21:01:29.396Z,6.60
2022-12-26T21:03:57.331Z,6.60
2022-12-26T21:06:25.696Z,6.70
2022-12-26T21:08:53.589Z,7.10
2022-12-26T21:11:23.627Z,6.70
2022-12-26T21:13:52.151Z,6.70
2022-12-26T21:16:21.334Z,6.70
2022-12-26T21:18:48.844Z,6.70
2022-12-26T21:21:18.185Z,6.80
2022-12-26T21:23:45.625Z,6.70
2022-12-26T21:26:13.056Z,8.10
2022-12-26T21:28:40.372Z,6.60
2022-12-26T21:31:08.868Z,6.60
2022-12-26T21:33:42.328Z,6.60
2022-12-26T21:36:12.746Z,6.60
2022-12-26T21:38:40.176Z,6.50
2022-12-26T21:41:08.974Z,6.60
2022-12-26T21:43:36.406Z,6.60
2022-12-26T21:46:11.663Z,6.60
2022-12-26T21:48:39.059Z,6.60
2022-12-26T21:51:09.494Z,6.60
2022-12-26T21:53:36.582Z,6.60
2022-12-26T21:56:04.718Z,6.60
2022-12-26T21:58:52.008Z,7.50
2022-12-26T22:01:23.513Z,6.60
2022-12-26T22:04:09.161Z,6.60
2022-12-26T22:06:36.758Z,6.50
2022-12-26T22:09:04.536Z,6.50
2022-12-26T22:11:50.631Z,6.50
2022-12-26T22:14:18.054Z,5.80
2022-12-26T22:16:45.152Z,6.50
2022-12-26T22:19:12.483Z,6.40
2022-12-26T22:21:39.601Z,7.70
2022-12-26T22:24:06.827Z,6.40
2022-12-26T22:26:34.031Z,6.00
2022-12-26T22:29:01.334Z,6.40
2022-12-26T22:31:31.786Z,6.40
2022-12-26T22:34:00.394Z,6.40
2022-12-26T22:36:28.200Z,6.30
2022-12-26T22:38:55.637Z,6.30
2022-12-26T22:41:23.235Z,6.30
2022-12-26T22:43:50.542Z,6.30
2022-12-26T22:46:17.749Z,5.50
2022-12-26T22:48:44.978Z,6.30
2022-12-26T22:51:16.230Z,6.30
2022-12-26T22:53:43.459Z,6.30
2022-12-26T22:56:11.478Z,6.30
2022-12-26T22:58:38.639Z,6.30
2022-12-26T23:01:15.994Z,6.30
2022-12-26T23:03:43.248Z,6.30
2022-12-26T23:06:21.479Z,6.30
2022-12-26T23:08:49.486Z,6.30
2022-12-26T23:11:16.841Z,6.40
2022-12-26T23:13:45.428Z,6.30
2022-12-26T23:16:28.522Z,6.30
2022-12-26T23:19:18.755Z,6.30
2022-12-26T23:21:48.700Z,6.30
2022-12-26T23:24:17.614Z,6.30
2022-12-26T23:26:46.608Z,6.20
2022-12-26T23:29:53.054Z,6.80
2022-12-26T23:32:20.204Z,6.20
2022-12-26T23:34:47.295Z,6.20
2022-12-26T23:37:15.322Z,6.20
2022-12-26T23:39:42.431Z,6.20
2022-12-26T23:42:09.784Z,6.20
2022-12-26T23:44:36.901Z,6.20
2022-12-26T23:47:04.055Z,6.20
2022-12-26T23:49:31.156Z,6.20
2022-12-26T23:51:58.972Z,6.20
2022-12-26T23:54:26.349Z,6.20
2022-12-26T23:56:53.542Z,6.20
2022-12-26T23:59:20.690Z,6.30
